Time;durP1;ratioP1;P1;durP2;ratioP2;P2;SDS_P1;SDS_P2;PMS_P1;PMS_P2;Temp;Humidity;BMP_temperature;BMP_pressure;BME280_temperature;BME280_humidity;BME280_pressure;Samples;Min_cycle;Max_cycle;Signal;HPM_P1;HPM_P2
2021/08/21 00:00:03;;;;;;;6.07;5.47;;;16.20;1.00;17.00;100755.00;;;;4968738;28;20451;-79
2021/08/21 00:02:40;;;;;;;7.63;6.10;;;16.20;1.00;17.00;100777.00;;;;4973316;28;20455;-79
2021/08/21 00:05:10;;;;;;;6.93;6.00;;;16.10;1.00;17.00;100801.00;;;;4977421;28;20451;-78
2021/08/21 00:07:38;;;;;;;8.60;7.10;;;16.10;1.00;16.90;100804.00;;;;4966184;28;20457;-79
2021/08/21 00:10:09;;;;;;;7.87;7.17;;;16.10;1.00;16.90;100806.00;;;;4967835;28;20463;-78
2021/08/21 00:12:38;;;;;;;8.87;7.97;;;16.00;1.00;16.90;100813.00;;;;4988068;28;20470;-79
2021/08/21 00:15:12;;;;;;;9.53;8.60;;;16.00;1.00;16.90;100810.00;;;;4972517;28;20487;-78
2021/08/21 00:17:42;;;;;;;9.67;7.20;;;16.00;1.00;16.90;100784.00;;;;4975354;28;20521;-78
2021/08/21 00:20:12;;;;;;;7.90;7.10;;;16.00;1.00;16.90;100809.00;;;;4977759;28;21081;-79
2021/08/21 00:22:40;;;;;;;9.03;6.70;;;16.00;1.00;16.80;100799.00;;;;4961333;28;20516;-79
2021/08/21 00:25:11;;;;;;;9.93;7.07;;;16.00;1.00;16.80;100815.00;;;;4961466;28;20476;-80
2021/08/21 00:27:40;;;;;;;8.30;7.17;;;16.00;1.00;16.80;100793.00;;;;4964146;28;20899;-79
2021/08/21 00:30:10;;;;;;;8.27;7.03;;;16.00;1.00;16.80;100797.00;;;;4964022;28;21040;-79
2021/08/21 00:32:39;;;;;;;11.87;7.43;;;16.00;1.00;16.80;100779.00;;;;4970371;28;20462;-79
2021/08/21 00:35:11;;;;;;;10.43;7.97;;;15.90;1.00;16.80;100812.00;;;;4970981;28;20534;-80
2021/08/21 00:37:39;;;;;;;9.83;7.27;;;15.90;1.00;16.60;100789.00;;;;4969187;28;20589;-79
2021/08/21 00:40:09;;;;;;;11.20;6.90;;;15.90;1.00;16.80;100794.00;;;;4981086;28;20483;-78
2021/08/21 00:42:38;;;;;;;7.53;6.90;;;15.80;1.00;16.80;100808.00;;;;4979800;28;20451;-79
2021/08/21 00:45:08;;;;;;;8.30;6.80;;;15.80;1.00;16.80;100770.00;;;;4967976;28;20995;-78
2021/08/21 00:47:37;;;;;;;7.33;6.67;;;15.90;1.00;16.70;100801.00;;;;4959867;28;22680;-79
2021/08/21 00:50:09;;;;;;;7.00;6.30;;;15.90;1.00;16.80;100803.00;;;;4982603;28;20492;-79
2021/08/21 00:52:38;;;;;;;8.17;6.80;;;15.90;1.00;16.80;100813.00;;;;4968488;28;20466;-79
2021/08/21 00:55:09;;;;;;;8.13;6.30;;;15.90;1.00;16.80;100787.00;;;;4984851;28;20452;-79
2021/08/21 00:57:37;;;;;;;7.63;6.90;;;15.80;1.00;16.70;100814.00;;;;4973495;28;20490;-79
2021/08/21 01:00:07;;;;;;;8.53;7.57;;;15.80;1.00;16.70;100805.00;;;;4989689;28;20451;-78
2021/08/21 01:02:38;;;;;;;8.33;7.30;;;15.70;1.00;16.70;100811.00;;;;4983838;28;20459;-78
2021/08/21 01:05:14;;;;;;;7.63;6.93;;;15.70;1.00;16.70;100795.00;;;;4986934;28;20455;-79
2021/08/21 01:07:43;;;;;;;8.10;7.30;;;15.70;1.00;16.70;100797.00;;;;4974759;28;20498;-79
2021/08/21 01:10:15;;;;;;;9.63;7.67;;;15.80;1.00;16.70;100803.00;;;;4976182;28;20459;-79
2021/08/21 01:12:50;;;;;;;7.43;6.73;;;15.80;1.00;16.70;100752.00;;;;4980062;28;20465;-79
2021/08/21 01:15:20;;;;;;;8.40;7.50;;;15.80;1.00;16.70;100754.00;;;;4977620;28;20447;-79
2021/08/21 01:17:54;;;;;;;9.37;7.47;;;15.70;1.00;16.70;100797.00;;;;4971297;28;20475;-79
2021/08/21 01:20:28;;;;;;;7.60;6.77;;;15.70;1.00;16.70;100787.00;;;;4967090;28;20834;-79
2021/08/21 01:22:57;;;;;;;12.20;7.43;;;15.80;1.00;16.70;100778.00;;;;4965991;28;20487;-79
2021/08/21 01:25:31;;;;;;;8.53;7.73;;;15.90;1.00;16.70;100797.00;;;;4965669;28;20476;-79
2021/08/21 01:28:03;;;;;;;8.77;7.87;;;15.80;1.00;16.70;100785.00;;;;4961470;28;20464;-79
2021/08/21 01:31:02;;;;;;;12.23;8.07;;;15.80;1.00;16.70;100797.00;;;;4967049;28;20464;-79
2021/08/21 01:33:39;;;;;;;8.57;7.87;;;15.70;1.00;16.70;100788.00;;;;4971139;28;20486;-79
2021/08/21 01:36:07;;;;;;;12.73;7.73;;;15.80;1.00;16.60;100776.00;;;;4979062;28;20457;-80
2021/08/21 01:38:56;;;;;;;9.43;6.87;;;15.80;1.00;16.70;100771.00;;;;4975441;28;21032;-79
2021/08/21 01:41:46;;;;;;;8.63;7.20;;;15.80;1.00;16.70;100788.00;;;;4963423;28;20447;-79
2021/08/21 01:44:19;;;;;;;10.40;7.10;;;15.80;1.00;16.70;100784.00;;;;4965264;28;20483;-79
2021/08/21 01:46:49;;;;;;;10.37;7.77;;;15.80;1.00;16.70;100794.00;;;;4971313;28;20467;-79
2021/08/21 01:49:22;;;;;;;8.63;7.83;;;15.80;1.00;16.70;100776.00;;;;4978208;28;20494;-79
2021/08/21 01:51:54;;;;;;;8.37;7.57;;;15.80;1.00;16.70;100811.00;;;;4967354;28;20458;-79
2021/08/21 01:54:25;;;;;;;10.63;7.43;;;15.80;1.00;16.70;100754.00;;;;4965057;28;20806;-79
2021/08/21 01:56:59;;;;;;;10.73;7.50;;;15.80;1.00;16.70;100799.00;;;;4966017;28;20546;-79
2021/08/21 01:59:55;;;;;;;7.90;7.10;;;15.80;1.00;16.70;100792.00;;;;4944735;28;20459;-79
2021/08/21 02:02:28;;;;;;;7.80;7.00;;;15.80;1.00;16.70;100797.00;;;;4963542;28;20462;-79
2021/08/21 02:05:17;;;;;;;9.87;7.97;;;15.80;1.00;16.70;100790.00;;;;4965627;28;20463;-79
2021/08/21 02:07:45;;;;;;;9.63;7.23;;;15.80;1.00;16.70;100750.00;;;;4957301;28;20527;-79
2021/08/21 02:10:14;;;;;;;9.17;7.20;;;15.70;1.00;16.70;100793.00;;;;4963289;28;20455;-79
2021/08/21 02:12:43;;;;;;;9.63;6.90;;;15.80;1.00;16.70;100757.00;;;;4966033;28;20641;-79
2021/08/21 02:15:17;;;;;;;13.20;7.40;;;15.80;1.00;16.70;100795.00;;;;4966250;28;20451;-79
2021/08/21 02:17:51;;;;;;;8.77;6.47;;;15.80;1.00;16.70;100793.00;;;;4958171;28;20585;-79
2021/08/21 02:20:46;;;;;;;8.40;7.27;;;15.90;1.00;16.80;100779.00;;;;4962458;28;20534;-79
2021/08/21 02:23:23;;;;;;;7.90;7.10;;;15.90;1.00;16.80;100787.00;;;;4981677;28;20526;-79
2021/08/21 02:25:56;;;;;;;8.47;7.63;;;15.80;1.00;16.80;100787.00;;;;4968187;28;21136;-79
2021/08/21 02:28:30;;;;;;;8.57;7.00;;;15.90;1.00;16.80;100777.00;;;;4977519;28;20459;-79
2021/08/21 02:31:02;;;;;;;7.80;7.10;;;15.90;1.00;16.80;100772.00;;;;4976917;28;20464;-79
2021/08/21 02:33:31;;;;;;;8.77;7.10;;;15.90;1.00;16.80;100798.00;;;;4978282;28;20475;-79
2021/08/21 02:36:00;;;;;;;11.20;7.13;;;16.00;1.00;16.70;100791.00;;;;4975374;28;20472;-79
2021/08/21 02:38:29;;;;;;;8.67;7.00;;;15.90;1.00;16.80;100765.00;;;;4981654;28;20526;-79
2021/08/21 02:40:58;;;;;;;7.63;6.83;;;16.00;1.00;16.80;100786.00;;;;4968231;28;20458;-79
2021/08/21 02:43:27;;;;;;;8.13;7.30;;;15.90;1.00;16.80;100794.00;;;;4965606;28;21000;-79
2021/08/21 02:45:56;;;;;;;9.30;7.00;;;15.90;1.00;16.80;100790.00;;;;4963497;28;20455;-79
2021/08/21 02:48:26;;;;;;;7.60;6.80;;;15.90;1.00;16.80;100772.00;;;;4965310;28;20470;-80
2021/08/21 02:50:55;;;;;;;7.83;7.13;;;15.90;1.00;16.70;100760.00;;;;4983028;28;21126;-79
2021/08/21 02:53:23;;;;;;;7.73;6.70;;;15.90;1.00;16.70;100777.00;;;;4982597;28;20499;-80
2021/08/21 02:55:52;;;;;;;8.10;7.30;;;15.80;1.00;16.70;100777.00;;;;4982321;28;20463;-79
2021/08/21 02:58:21;;;;;;;7.47;6.77;;;15.80;1.00;16.60;100769.00;;;;4969494;28;20475;-79
2021/08/21 03:00:50;;;;;;;9.80;7.23;;;15.80;1.00;16.60;100774.00;;;;4985349;28;20468;-79
2021/08/21 03:03:19;;;;;;;8.67;7.77;;;15.80;1.00;16.60;100771.00;;;;4965859;28;20562;-80
2021/08/21 03:05:52;;;;;;;8.30;7.50;;;15.70;1.00;16.50;100764.00;;;;4979056;28;20456;-79
2021/08/21 03:08:25;;;;;;;9.33;8.23;;;15.70;1.00;16.50;100766.00;;;;4987829;28;20471;-80
2021/08/21 03:10:56;;;;;;;9.47;7.33;;;15.70;1.00;16.40;100729.00;;;;4986263;28;20482;-82
2021/08/21 03:13:27;;;;;;;9.60;7.60;;;15.60;1.00;16.40;100721.00;;;;4986905;28;20478;-80
2021/08/21 03:15:56;;;;;;;12.70;8.63;;;15.50;1.00;16.40;100761.00;;;;4978666;28;20464;-81
2021/08/21 03:18:25;;;;;;;8.97;8.17;;;15.50;1.00;16.30;100767.00;;;;4977573;28;20497;-79
2021/08/21 03:20:58;;;;;;;9.00;7.77;;;15.50;1.00;16.30;100769.00;;;;4963795;28;20471;-80
2021/08/21 03:23:27;;;;;;;7.93;6.97;;;15.50;1.00;16.30;100758.00;;;;4960598;28;20490;-79
2021/08/21 03:25:55;;;;;;;8.50;7.70;;;15.50;1.00;16.20;100750.00;;;;4990194;28;21005;-80
2021/08/21 03:28:24;;;;;;;10.73;7.90;;;15.50;1.00;16.20;100764.00;;;;4969276;28;20853;-79
2021/08/21 03:30:52;;;;;;;7.97;7.17;;;15.40;1.00;16.20;100760.00;;;;4978580;28;20518;-79
2021/08/21 03:33:25;;;;;;;8.37;7.53;;;15.40;1.00;16.10;100772.00;;;;4957222;28;20491;-79
2021/08/21 03:35:53;;;;;;;9.17;8.03;;;15.40;1.00;16.10;100745.00;;;;4971757;28;20490;-80
2021/08/21 03:38:24;;;;;;;8.73;7.93;;;15.40;1.00;16.10;100753.00;;;;4974754;28;20495;-80
2021/08/21 03:41:00;;;;;;;8.40;7.60;;;15.40;1.00;16.00;100770.00;;;;4966286;28;20494;-80
2021/08/21 03:43:32;;;;;;;8.17;6.87;;;15.30;1.00;16.00;100767.00;;;;4965536;28;20525;-79
2021/08/21 03:46:00;;;;;;;9.20;8.33;;;15.20;1.00;16.00;100774.00;;;;4966366;28;20508;-79
2021/08/21 03:48:29;;;;;;;9.13;7.70;;;15.20;1.00;15.90;100773.00;;;;4963765;28;20468;-79
2021/08/21 03:50:58;;;;;;;8.50;7.70;;;15.10;1.00;15.90;100784.00;;;;4972643;28;20475;-78
2021/08/21 03:53:27;;;;;;;10.43;7.50;;;15.10;1.00;15.80;100756.00;;;;4985385;28;20475;-79
2021/08/21 03:56:05;;;;;;;9.93;8.23;;;15.20;1.00;15.80;100772.00;;;;4968209;28;20459;-79
2021/08/21 03:58:38;;;;;;;12.43;8.30;;;15.10;1.00;15.80;100772.00;;;;4968875;28;20485;-79
2021/08/21 04:01:08;;;;;;;10.40;9.27;;;15.10;1.00;15.80;100777.00;;;;4966247;28;20472;-79
2021/08/21 04:03:37;;;;;;;12.33;8.90;;;15.10;1.00;15.80;100751.00;;;;4957804;28;20471;-79
2021/08/21 04:06:09;;;;;;;9.40;8.50;;;15.00;1.00;15.70;100755.00;;;;4969659;28;21062;-79
2021/08/21 04:08:40;;;;;;;8.50;7.50;;;15.00;1.00;15.70;100768.00;;;;4990519;28;20506;-80
2021/08/21 04:11:09;;;;;;;13.10;9.03;;;15.00;1.00;15.70;100772.00;;;;4980423;28;20460;-80
2021/08/21 04:13:48;;;;;;;9.30;8.27;;;15.00;1.00;15.70;100772.00;;;;4976988;28;20570;-79
2021/08/21 04:16:16;;;;;;;10.27;9.27;;;15.00;1.00;15.70;100753.00;;;;4982092;28;20459;-80
2021/08/21 04:18:44;;;;;;;8.70;7.80;;;14.90;1.00;15.70;100773.00;;;;4983691;28;20475;-79
2021/08/21 04:21:13;;;;;;;9.47;8.53;;;14.90;1.00;15.60;100760.00;;;;4975795;28;20810;-80
2021/08/21 04:23:43;;;;;;;9.93;8.87;;;14.90;1.00;15.60;100775.00;;;;4968973;28;21128;-79
2021/08/21 04:26:12;;;;;;;9.77;8.10;;;14.90;1.00;15.60;100776.00;;;;4986066;28;20467;-78
2021/08/21 04:28:41;;;;;;;9.00;8.10;;;14.90;1.00;15.60;100769.00;;;;4980903;28;20501;-79
2021/08/21 04:31:09;;;;;;;9.63;8.60;;;14.90;1.00;15.70;100769.00;;;;4969464;28;20456;-77
2021/08/21 04:33:40;;;;;;;9.40;8.57;;;14.90;1.00;15.70;100749.00;;;;4963469;28;20578;-78
2021/08/21 04:36:10;;;;;;;9.30;8.40;;;14.90;1.00;15.70;100752.00;;;;4974972;28;20465;-80
2021/08/21 04:38:40;;;;;;;7.37;6.67;;;14.90;1.00;15.70;100766.00;;;;4973663;28;20455;-79
2021/08/21 04:41:11;;;;;;;8.10;7.33;;;14.90;1.00;15.80;100775.00;;;;4987495;28;20460;-79
2021/08/21 04:43:39;;;;;;;8.57;7.67;;;15.00;1.00;15.80;100770.00;;;;4969246;28;20541;-79
2021/08/21 04:46:10;;;;;;;11.77;7.80;;;15.10;1.00;15.90;100772.00;;;;4961428;28;20491;-78
2021/08/21 04:48:41;;;;;;;9.67;7.27;;;15.20;1.00;16.00;100788.00;;;;4965432;28;20475;-79
2021/08/21 04:51:10;;;;;;;9.20;8.30;;;15.20;1.00;16.10;100778.00;;;;4966501;28;20731;-79
2021/08/21 04:53:40;;;;;;;8.37;7.57;;;15.30;1.00;16.10;100769.00;;;;4983061;28;20490;-79
2021/08/21 04:56:10;;;;;;;8.10;7.30;;;15.40;1.00;16.20;100752.00;;;;4959233;28;20463;-79
2021/08/21 04:58:57;;;;;;;7.40;6.23;;;15.40;1.00;16.30;100777.00;;;;4967314;28;20482;-78
2021/08/21 05:01:26;;;;;;;7.10;6.40;;;15.50;1.00;16.40;100781.00;;;;4955349;28;20494;-78
2021/08/21 05:03:55;;;;;;;8.40;6.77;;;15.50;1.00;16.50;100772.00;;;;4974316;28;21745;-78
2021/08/21 05:06:24;;;;;;;7.53;6.73;;;15.60;1.00;16.70;100732.00;;;;4968527;28;20455;-78
2021/08/21 05:08:52;;;;;;;6.83;6.03;;;15.80;1.00;16.80;100772.00;;;;4965848;28;20456;-79
2021/08/21 05:11:22;;;;;;;7.93;7.13;;;15.90;1.00;16.90;100790.00;;;;4957976;28;20461;-78
2021/08/21 05:13:51;;;;;;;13.23;6.60;;;15.90;1.00;17.00;100769.00;;;;4963598;28;20490;-78
2021/08/21 05:16:20;;;;;;;10.60;6.70;;;16.00;1.00;17.10;100784.00;;;;4960067;28;20485;-78
2021/08/21 05:19:30;;;;;;;8.50;6.77;;;16.10;1.00;17.20;100797.00;;;;4968096;28;20586;-78
2021/08/21 05:22:10;;;;;;;7.60;6.80;;;16.30;1.00;17.40;100784.00;;;;4982404;28;21022;-79
2021/08/21 05:24:38;;;;;;;8.23;6.50;;;16.40;1.00;17.50;100779.00;;;;4966863;28;20514;-79
2021/08/21 05:27:08;;;;;;;6.40;5.70;;;16.50;1.00;17.50;100765.00;;;;4957820;28;20463;-80
2021/08/21 05:29:37;;;;;;;6.20;5.60;;;16.60;1.00;17.60;100779.00;;;;4966886;28;20473;-80
2021/08/21 05:32:07;;;;;;;6.57;5.97;;;16.60;1.00;17.60;100768.00;;;;4965180;28;20550;-79
2021/08/21 05:34:35;;;;;;;7.10;5.57;;;16.70;1.00;17.70;100768.00;;;;4966433;28;20578;-80
2021/08/21 05:37:04;;;;;;;6.73;5.63;;;16.80;1.00;17.60;100786.00;;;;4964204;28;20459;-80
2021/08/21 05:39:33;;;;;;;6.73;6.03;;;16.80;1.00;17.70;100773.00;;;;4967238;28;20483;-79
2021/08/21 05:42:01;;;;;;;7.27;5.63;;;16.90;1.00;17.70;100787.00;;;;4979757;28;20471;-80
2021/08/21 05:44:31;;;;;;;8.63;5.53;;;16.90;1.00;17.80;100744.00;;;;4959673;28;20482;-80
2021/08/21 05:47:00;;;;;;;7.13;6.43;;;16.90;1.00;17.80;100779.00;;;;4970700;28;20495;-79
2021/08/21 05:49:29;;;;;;;9.70;6.63;;;17.00;1.00;17.70;100782.00;;;;4970146;28;20463;-78
2021/08/21 05:51:57;;;;;;;6.70;6.10;;;17.00;1.00;17.70;100788.00;;;;4978405;28;20543;-79
2021/08/21 05:54:29;;;;;;;7.27;6.33;;;17.00;1.00;17.80;100793.00;;;;4973340;28;20544;-78
2021/08/21 05:57:06;;;;;;;7.40;6.30;;;17.10;1.00;17.90;100792.00;;;;4972021;28;20456;-79
2021/08/21 05:59:36;;;;;;;6.50;5.90;;;17.30;1.00;18.10;100778.00;;;;4982204;28;20468;-80
2021/08/21 06:02:05;;;;;;;6.20;5.70;;;17.40;1.00;18.30;100773.00;;;;4982113;28;20482;-80
2021/08/21 06:04:34;;;;;;;6.20;5.60;;;17.60;1.00;18.40;100797.00;;;;4970910;28;20480;-80
2021/08/21 06:07:02;;;;;;;6.93;5.07;;;17.80;1.00;18.70;100759.00;;;;4978493;28;20478;-79
2021/08/21 06:09:31;;;;;;;5.77;4.80;;;18.00;1.00;18.90;100794.00;;;;4997113;28;20551;-79
2021/08/21 06:11:59;;;;;;;5.43;4.53;;;18.20;1.00;19.10;100804.00;;;;5005860;28;20475;-80
2021/08/21 06:14:28;;;;;;;5.00;4.50;;;18.30;1.00;19.20;100793.00;;;;4994963;28;20543;-80
2021/08/21 06:16:57;;;;;;;5.20;4.70;;;18.50;1.00;19.30;100800.00;;;;4989987;28;20468;-80
2021/08/21 06:19:26;;;;;;;6.13;4.27;;;18.60;1.00;19.40;100808.00;;;;4976583;28;20846;-80
2021/08/21 06:21:54;;;;;;;5.70;4.67;;;18.60;1.00;19.50;100800.00;;;;4966096;28;20546;-80
2021/08/21 06:24:22;;;;;;;5.03;4.53;;;18.60;1.00;19.40;100798.00;;;;4972447;28;20894;-79
2021/08/21 06:26:51;;;;;;;6.17;4.73;;;18.50;1.00;19.40;100762.00;;;;4969663;28;20471;-80
2021/08/21 06:29:19;;;;;;;5.97;4.70;;;18.50;1.00;19.40;100798.00;;;;4967914;28;20468;-79
2021/08/21 06:31:47;;;;;;;6.50;5.37;;;18.50;1.00;19.60;100797.00;;;;4969616;28;20460;-79
2021/08/21 06:34:21;;;;;;;5.90;4.83;;;18.70;1.00;19.70;100801.00;;;;4970531;28;20562;-79
2021/08/21 06:36:49;;;;;;;5.60;5.00;;;18.70;1.00;19.80;100774.00;;;;4971183;28;20472;-80
2021/08/21 06:39:17;;;;;;;5.00;4.50;;;18.90;1.00;19.90;100782.00;;;;4976425;28;21103;-79
2021/08/21 06:41:46;;;;;;;7.67;4.93;;;19.00;1.00;20.00;100788.00;;;;4989091;28;20499;-79
2021/08/21 06:44:14;;;;;;;4.83;4.40;;;19.00;1.00;20.00;100789.00;;;;4978653;28;20490;-79
2021/08/21 06:46:43;;;;;;;6.20;4.83;;;19.00;1.00;20.00;100763.00;;;;4989248;28;20534;-80
2021/08/21 06:49:12;;;;;;;7.50;4.97;;;19.10;1.00;20.10;100795.00;;;;4965533;28;20463;-79
2021/08/21 06:51:41;;;;;;;5.73;5.13;;;19.10;1.00;20.20;100774.00;;;;4965396;28;20464;-79
2021/08/21 06:54:10;;;;;;;5.73;5.13;;;19.30;1.00;20.30;100785.00;;;;4967792;28;20484;-79
2021/08/21 06:56:38;;;;;;;6.40;4.97;;;19.30;1.00;20.30;100783.00;;;;4967947;28;20474;-80
2021/08/21 06:59:06;;;;;;;6.30;5.67;;;19.40;1.00;20.30;100752.00;;;;4958495;28;20463;-80
2021/08/21 07:01:36;;;;;;;5.63;5.10;;;19.50;1.00;20.40;100776.00;;;;4968211;28;20463;-80
2021/08/21 07:04:05;;;;;;;5.10;4.63;;;19.50;1.00;20.40;100769.00;;;;4976870;28;20489;-79
2021/08/21 07:06:33;;;;;;;8.00;5.47;;;19.50;1.00;20.60;100781.00;;;;4977561;28;20925;-80
2021/08/21 07:09:03;;;;;;;5.83;4.87;;;19.60;1.00;20.70;100784.00;;;;4975958;28;20460;-81
2021/08/21 07:11:31;;;;;;;6.00;4.33;;;19.70;1.00;20.80;100732.00;;;;4966514;28;20463;-80
2021/08/21 07:14:00;;;;;;;5.00;4.50;;;19.80;1.00;20.90;100775.00;;;;4968965;28;21239;-80
2021/08/21 07:16:28;;;;;;;6.10;5.20;;;20.00;1.00;21.00;100776.00;;;;4968212;28;20460;-79
2021/08/21 07:18:57;;;;;;;4.93;4.43;;;20.10;1.00;21.20;100780.00;;;;4970333;28;20550;-79
2021/08/21 07:21:25;;;;;;;5.77;4.40;;;20.30;1.00;21.40;100774.00;;;;4969878;28;20482;-80
2021/08/21 07:23:54;;;;;;;5.80;5.20;;;20.50;1.00;21.50;100776.00;;;;4971240;28;20912;-80
2021/08/21 07:26:23;;;;;;;7.37;4.30;;;20.70;1.00;21.70;100785.00;;;;4970351;28;20452;-79
2021/08/21 07:28:52;;;;;;;4.70;4.30;;;20.90;1.00;21.80;100774.00;;;;4968143;28;20563;-79
2021/08/21 07:31:20;;;;;;;4.70;4.30;;;20.90;1.00;21.70;100771.00;;;;4970935;28;20461;-81
2021/08/21 07:33:49;;;;;;;4.90;4.40;;;20.90;1.00;21.80;100775.00;;;;4970926;28;20487;-81
2021/08/21 07:36:17;;;;;;;6.07;3.90;;;21.00;1.00;22.00;100774.00;;;;4970028;28;20547;-80
2021/08/21 07:38:45;;;;;;;6.63;4.70;;;21.20;1.00;22.00;100779.00;;;;4972019;28;20455;-80
2021/08/21 07:41:14;;;;;;;4.60;4.00;;;21.30;1.00;22.00;100788.00;;;;4965221;28;20479;-80
2021/08/21 07:43:43;;;;;;;6.87;4.10;;;21.30;1.00;22.10;100786.00;;;;4972874;28;20479;-80
2021/08/21 07:46:12;;;;;;;4.83;3.97;;;21.40;1.00;22.30;100786.00;;;;4978951;28;21047;-80
2021/08/21 07:48:40;;;;;;;7.13;4.00;;;21.50;1.00;22.20;100788.00;;;;4971922;28;20976;-80
2021/08/21 07:51:09;;;;;;;4.83;4.43;;;21.40;1.00;22.00;100727.00;;;;4966918;28;20467;-80
2021/08/21 07:53:37;;;;;;;4.70;4.30;;;21.40;1.00;22.00;100765.00;;;;4969143;28;20889;-79
2021/08/21 07:56:07;;;;;;;4.70;4.30;;;21.40;1.00;22.10;100782.00;;;;4980824;28;20439;-80
2021/08/21 07:58:35;;;;;;;5.30;4.80;;;21.40;1.00;22.30;100785.00;;;;4981816;28;20463;-80
2021/08/21 08:01:05;;;;;;;5.80;4.73;;;21.50;1.00;22.30;100783.00;;;;4966107;28;20498;-80
2021/08/21 08:03:34;;;;;;;5.30;4.80;;;21.60;1.00;22.20;100800.00;;;;4967464;28;20483;-80
2021/08/21 08:06:03;;;;;;;4.50;4.10;;;21.60;1.00;22.10;100797.00;;;;4971841;28;20933;-81
2021/08/21 08:08:31;;;;;;;6.90;5.43;;;21.50;1.00;22.00;100779.00;;;;4976053;28;20563;-82
2021/08/21 08:10:59;;;;;;;4.70;4.30;;;21.40;1.00;22.00;100804.00;;;;4986610;28;20491;-82
2021/08/21 08:13:28;;;;;;;5.90;5.30;;;21.40;1.00;22.10;100795.00;;;;4988475;28;20594;-83
2021/08/21 08:15:56;;;;;;;5.23;4.27;;;21.50;1.00;22.40;100806.00;;;;4996919;28;20459;-82
2021/08/21 08:18:26;;;;;;;7.10;4.53;;;21.80;1.00;22.40;100798.00;;;;4972478;28;20801;-82
2021/08/21 08:20:54;;;;;;;4.97;4.47;;;21.90;1.00;22.50;100788.00;;;;4968695;28;20985;-82
2021/08/21 08:23:23;;;;;;;5.23;4.63;;;22.00;1.00;22.50;100794.00;;;;4970860;28;20503;-82
2021/08/21 08:25:51;;;;;;;5.30;4.80;;;22.00;1.00;22.40;100791.00;;;;4970289;28;20455;-82
2021/08/21 08:28:19;;;;;;;5.70;5.10;;;21.90;1.00;22.40;100801.00;;;;4986326;28;20452;-81
2021/08/21 08:30:48;;;;;;;5.10;4.70;;;22.00;1.00;22.30;100809.00;;;;4966614;28;20459;-81
2021/08/21 08:33:16;;;;;;;10.20;8.33;;;21.90;1.00;22.40;100805.00;;;;4970441;28;20928;-83
2021/08/21 08:35:46;;;;;;;5.03;4.57;;;21.90;1.00;22.60;100704.00;;;;4976352;28;20463;-82
2021/08/21 08:38:15;;;;;;;5.30;4.80;;;22.20;1.00;22.80;100776.00;;;;4990671;28;20478;-82
2021/08/21 08:40:43;;;;;;;4.80;4.40;;;22.30;1.00;22.80;100808.00;;;;4977070;28;20461;-80
2021/08/21 08:43:11;;;;;;;5.20;4.70;;;22.30;1.00;22.70;100788.00;;;;4992546;28;20498;-82
2021/08/21 08:45:43;;;;;;;5.50;4.70;;;22.20;1.00;22.80;100780.00;;;;4982590;28;20463;-81
2021/08/21 08:48:14;;;;;;;5.57;4.97;;;22.20;1.00;22.90;100781.00;;;;4972602;28;20464;-81
2021/08/21 08:50:44;;;;;;;7.60;5.30;;;22.40;1.00;22.90;100790.00;;;;4972774;28;20455;-81
2021/08/21 08:53:14;;;;;;;5.90;5.20;;;22.50;1.00;22.90;100791.00;;;;4964517;28;20555;-80
2021/08/21 08:55:43;;;;;;;7.13;5.63;;;22.50;1.00;23.10;100791.00;;;;4971510;28;20475;-81
2021/08/21 08:58:12;;;;;;;5.50;4.90;;;22.70;1.00;23.20;100791.00;;;;4974662;28;20467;-81
2021/08/21 09:00:40;;;;;;;5.73;5.13;;;22.90;1.00;23.10;100784.00;;;;4994594;28;20600;-81
2021/08/21 09:03:20;;;;;;;8.40;7.70;;;22.80;1.00;23.30;100763.00;;;;4982842;28;20590;-81
2021/08/21 09:05:49;;;;;;;5.67;5.07;;;23.00;1.00;23.50;100776.00;;;;4983990;28;20975;-81
2021/08/21 09:08:27;;;;;;;5.20;4.33;;;23.20;1.00;23.60;100772.00;;;;4983019;28;20456;-81
2021/08/21 09:10:57;;;;;;;6.47;5.87;;;23.40;1.00;23.60;100795.00;;;;4987564;28;20451;-81
2021/08/21 09:13:26;;;;;;;5.40;4.03;;;23.40;1.00;23.70;100787.00;;;;4992836;28;20489;-80
2021/08/21 09:15:58;;;;;;;6.27;5.10;;;23.50;1.00;23.70;100774.00;;;;4997802;28;20470;-80
2021/08/21 09:18:28;;;;;;;5.73;5.17;;;23.50;1.00;23.80;100782.00;;;;4975394;28;20564;-81
2021/08/21 09:21:12;;;;;;;4.67;4.27;;;23.60;1.00;23.80;100775.00;;;;4969796;28;20551;-80
2021/08/21 09:23:44;;;;;;;5.27;4.77;;;23.50;1.00;23.80;100742.00;;;;4970474;28;20570;-80
2021/08/21 09:26:20;;;;;;;5.87;4.83;;;23.50;1.00;23.90;100785.00;;;;4963181;28;20824;-80
2021/08/21 09:28:51;;;;;;;5.23;4.77;;;23.70;1.00;23.80;100763.00;;;;4970666;28;20465;-80
2021/08/21 09:31:22;;;;;;;5.40;4.90;;;23.60;1.00;23.80;100781.00;;;;4993795;28;22123;-80
2021/08/21 09:33:53;;;;;;;5.20;4.77;;;23.50;1.00;23.80;100790.00;;;;4977984;28;20486;-81
2021/08/21 09:36:30;;;;;;;5.37;4.90;;;23.60;1.00;24.20;100783.00;;;;4973690;28;20464;-81
2021/08/21 09:39:01;;;;;;;6.40;4.83;;;24.00;1.00;24.30;100762.00;;;;4975155;28;20439;-81
2021/08/21 09:41:30;;;;;;;6.03;5.30;;;24.00;1.00;24.60;100783.00;;;;4972429;28;20498;-81
2021/08/21 09:44:07;;;;;;;5.40;4.33;;;24.40;1.00;24.60;100787.00;;;;4970304;28;20514;-81
2021/08/21 09:46:37;;;;;;;5.07;4.60;;;24.50;1.00;24.60;100777.00;;;;4971222;28;20565;-81
2021/08/21 09:49:07;;;;;;;6.30;4.63;;;24.40;1.00;24.60;100779.00;;;;4970471;28;20466;-82
2021/08/21 09:51:44;;;;;;;6.70;5.63;;;24.30;1.00;24.70;100775.00;;;;4980253;28;20546;-81
2021/08/21 09:54:17;;;;;;;4.67;4.17;;;24.40;1.00;24.90;100776.00;;;;4975295;28;20581;-82
2021/08/21 09:56:53;;;;;;;5.70;4.60;;;24.70;1.00;24.80;100772.00;;;;4968236;28;20467;-81
2021/08/21 09:59:36;;;;;;;5.33;4.80;;;24.80;1.00;25.00;100750.00;;;;4971128;28;20531;-81
2021/08/21 10:02:09;;;;;;;4.87;4.37;;;24.90;1.00;25.10;100759.00;;;;4967851;28;20578;-81
2021/08/21 10:04:40;;;;;;;4.97;4.40;;;25.00;1.00;24.80;100740.00;;;;4968610;28;20487;-81
2021/08/21 10:07:09;;;;;;;5.57;4.33;;;24.70;1.00;24.60;100768.00;;;;4982476;28;20470;-81
2021/08/21 10:09:40;;;;;;;7.10;6.40;;;24.50;1.00;24.70;100759.00;;;;4983409;28;20546;-80
2021/08/21 10:12:11;;;;;;;4.87;4.07;;;24.50;1.00;24.70;100777.00;;;;4970043;28;20506;-81
2021/08/21 10:14:44;;;;;;;5.23;4.73;;;24.60;1.00;24.80;100770.00;;;;4970586;28;20491;-80
2021/08/21 10:17:16;;;;;;;6.10;4.80;;;24.70;1.00;24.90;100747.00;;;;4972521;28;20451;-80
2021/08/21 10:19:46;;;;;;;6.63;4.00;;;24.90;1.00;25.10;100744.00;;;;4984033;28;20467;-81
2021/08/21 10:22:15;;;;;;;5.60;4.97;;;25.10;1.00;25.20;100757.00;;;;4984260;28;20578;-80
2021/08/21 10:24:48;;;;;;;4.50;4.10;;;25.30;1.00;25.20;100754.00;;;;4971171;28;20588;-79
2021/08/21 10:27:23;;;;;;;3.80;3.47;;;25.40;1.00;25.30;100749.00;;;;4971331;28;20501;-80
2021/08/21 10:30:07;;;;;;;3.87;3.57;;;25.40;1.00;25.30;100753.00;;;;4963450;28;20538;-80
2021/08/21 10:32:39;;;;;;;7.00;4.60;;;25.30;1.00;25.40;100747.00;;;;4966959;28;20835;-82
2021/08/21 10:35:09;;;;;;;4.30;3.80;;;25.40;1.00;25.40;100725.00;;;;4966883;28;20491;-82
2021/08/21 10:37:40;;;;;;;4.10;3.70;;;25.40;1.00;25.50;100742.00;;;;4984881;28;20506;-81
2021/08/21 10:40:39;;;;;;;4.90;4.23;;;25.30;1.00;25.50;100732.00;;;;4968683;28;20456;-81
2021/08/21 10:43:08;;;;;;;11.47;10.40;;;25.50;1.00;25.60;100741.00;;;;4966839;28;20530;-81
2021/08/21 10:45:46;;;;;;;4.40;4.00;;;25.70;1.00;25.70;100718.00;;;;4958935;28;20451;-81
2021/08/21 10:48:49;;;;;;;4.40;3.93;;;25.90;1.00;25.80;100727.00;;;;4967163;28;20455;-82
2021/08/21 10:51:33;;;;;;;5.57;4.60;;;26.10;1.00;26.00;100740.00;;;;4970430;28;20551;-83
2021/08/21 10:54:40;;;;;;;5.57;4.10;;;26.20;1.00;26.00;100738.00;;;;4969394;28;20485;-83
2021/08/21 10:57:30;;;;;;;4.50;3.80;;;26.30;1.00;26.10;100730.00;;;;4981507;28;20463;-82
2021/08/21 10:59:59;;;;;;;3.80;3.50;;;26.20;1.00;26.10;100724.00;;;;4977006;28;20605;-82
2021/08/21 11:02:43;;;;;;;4.00;3.60;;;26.20;1.00;26.20;100722.00;;;;4971479;28;20475;-84
2021/08/21 11:05:56;;;;;;;4.90;4.40;;;26.40;1.00;26.30;100737.00;;;;4968308;28;21541;-83
2021/08/21 11:08:26;;;;;;;4.77;3.97;;;26.40;1.00;26.10;100719.00;;;;4988778;28;20466;-83
2021/08/21 11:11:24;;;;;;;5.20;3.10;;;26.50;1.00;26.50;100726.00;;;;4984511;28;20487;-84
2021/08/21 11:13:59;;;;;;;5.50;5.00;;;26.70;1.00;26.60;100722.00;;;;4978260;28;20497;-82